sensor_id;sensor_type;location;lat;lon;timestamp;P1;durP1;ratioP1;P2;durP2;ratioP2
62435;SDS011;48480;50.252;18.848;2023-04-30T00:01:40;17.80;;;13.00;;
62435;SDS011;48480;50.252;18.848;2023-04-30T00:04:25;18.80;;;14.10;;
62435;SDS011;48480;50.252;18.848;2023-04-30T00:07:10;21.00;;;14.10;;
62435;SDS011;48480;50.252;18.848;2023-04-30T00:09:54;20.20;;;13.50;;
62435;SDS011;48480;50.252;18.848;2023-04-30T00:12:38;22.00;;;14.80;;
62435;SDS011;48480;50.252;18.848;2023-04-30T00:15:22;20.70;;;13.80;;
62435;SDS011;48480;50.252;18.848;2023-04-30T00:18:07;20.00;;;13.50;;
62435;SDS011;48480;50.252;18.848;2023-04-30T00:20:51;20.20;;;13.90;;
62435;SDS011;48480;50.252;18.848;2023-04-30T00:23:37;23.00;;;15.90;;
62435;SDS011;48480;50.252;18.848;2023-04-30T00:26:21;21.10;;;14.70;;
62435;SDS011;48480;50.252;18.848;2023-04-30T00:29:05;23.80;;;15.60;;
62435;SDS011;48480;50.252;18.848;2023-04-30T00:31:49;24.30;;;16.00;;
62435;SDS011;48480;50.252;18.848;2023-04-30T00:34:34;25.20;;;17.30;;
62435;SDS011;48480;50.252;18.848;2023-04-30T00:37:18;24.90;;;16.50;;
62435;SDS011;48480;50.252;18.848;2023-04-30T00:40:02;26.80;;;16.20;;
62435;SDS011;48480;50.252;18.848;2023-04-30T00:42:47;22.30;;;14.80;;
62435;SDS011;48480;50.252;18.848;2023-04-30T00:45:32;24.00;;;15.70;;
62435;SDS011;48480;50.252;18.848;2023-04-30T00:48:16;27.60;;;16.00;;
62435;SDS011;48480;50.252;18.848;2023-04-30T00:51:01;26.20;;;16.20;;
62435;SDS011;48480;50.252;18.848;2023-04-30T00:53:46;24.40;;;14.90;;
62435;SDS011;48480;50.252;18.848;2023-04-30T00:56:31;24.50;;;15.20;;
62435;SDS011;48480;50.252;18.848;2023-04-30T00:59:16;22.90;;;15.60;;
62435;SDS011;48480;50.252;18.848;2023-04-30T01:02:00;22.70;;;14.20;;
62435;SDS011;48480;50.252;18.848;2023-04-30T01:04:46;21.70;;;14.70;;
62435;SDS011;48480;50.252;18.848;2023-04-30T01:07:30;21.00;;;14.10;;
62435;SDS011;48480;50.252;18.848;2023-04-30T01:10:15;23.60;;;14.10;;
62435;SDS011;48480;50.252;18.848;2023-04-30T01:13:02;19.20;;;12.10;;
62435;SDS011;48480;50.252;18.848;2023-04-30T01:16:18;16.20;;;11.20;;
62435;SDS011;48480;50.252;18.848;2023-04-30T01:25:20;15.40;;;10.80;;
62435;SDS011;48480;50.252;18.848;2023-04-30T01:28:13;13.90;;;9.60;;
62435;SDS011;48480;50.252;18.848;2023-04-30T01:30:59;12.80;;;9.20;;
62435;SDS011;48480;50.252;18.848;2023-04-30T01:33:44;12.90;;;9.20;;
62435;SDS011;48480;50.252;18.848;2023-04-30T01:42:52;9.40;;;7.10;;
62435;SDS011;48480;50.252;18.848;2023-04-30T01:49:07;8.80;;;7.20;;
62435;SDS011;48480;50.252;18.848;2023-04-30T01:52:08;7.80;;;6.00;;
62435;SDS011;48480;50.252;18.848;2023-04-30T01:55:17;8.20;;;6.10;;
62435;SDS011;48480;50.252;18.848;2023-04-30T01:58:14;9.00;;;6.80;;
62435;SDS011;48480;50.252;18.848;2023-04-30T02:00:59;7.90;;;5.80;;
62435;SDS011;48480;50.252;18.848;2023-04-30T02:03:44;7.70;;;5.70;;
62435;SDS011;48480;50.252;18.848;2023-04-30T02:06:29;8.10;;;5.80;;
62435;SDS011;48480;50.252;18.848;2023-04-30T02:09:14;7.50;;;5.60;;
62435;SDS011;48480;50.252;18.848;2023-04-30T02:11:58;7.60;;;5.40;;
62435;SDS011;48480;50.252;18.848;2023-04-30T02:14:42;8.30;;;5.70;;
62435;SDS011;48480;50.252;18.848;2023-04-30T02:17:26;7.20;;;5.20;;
62435;SDS011;48480;50.252;18.848;2023-04-30T02:20:10;8.10;;;5.60;;
62435;SDS011;48480;50.252;18.848;2023-04-30T02:22:55;5.80;;;4.60;;
62435;SDS011;48480;50.252;18.848;2023-04-30T02:25:39;7.70;;;5.40;;
62435;SDS011;48480;50.252;18.848;2023-04-30T02:28:24;7.00;;;5.50;;
62435;SDS011;48480;50.252;18.848;2023-04-30T02:31:08;9.10;;;6.70;;
62435;SDS011;48480;50.252;18.848;2023-04-30T02:33:52;9.00;;;7.50;;
62435;SDS011;48480;50.252;18.848;2023-04-30T02:36:37;10.10;;;7.80;;
62435;SDS011;48480;50.252;18.848;2023-04-30T02:39:21;8.90;;;7.20;;
62435;SDS011;48480;50.252;18.848;2023-04-30T02:42:05;8.30;;;7.20;;
62435;SDS011;48480;50.252;18.848;2023-04-30T02:44:50;8.60;;;7.70;;
62435;SDS011;48480;50.252;18.848;2023-04-30T02:47:34;10.30;;;9.00;;
62435;SDS011;48480;50.252;18.848;2023-04-30T02:50:18;10.90;;;7.90;;
62435;SDS011;48480;50.252;18.848;2023-04-30T02:53:02;9.20;;;7.50;;
62435;SDS011;48480;50.252;18.848;2023-04-30T02:55:47;14.80;;;9.00;;
62435;SDS011;48480;50.252;18.848;2023-04-30T02:58:31;13.70;;;8.30;;
62435;SDS011;48480;50.252;18.848;2023-04-30T03:01:16;13.30;;;9.20;;
62435;SDS011;48480;50.252;18.848;2023-04-30T03:04:00;14.20;;;10.00;;
62435;SDS011;48480;50.252;18.848;2023-04-30T03:06:47;14.30;;;9.70;;
62435;SDS011;48480;50.252;18.848;2023-04-30T03:09:31;14.70;;;10.20;;
62435;SDS011;48480;50.252;18.848;2023-04-30T03:12:15;15.10;;;9.30;;
62435;SDS011;48480;50.252;18.848;2023-04-30T03:14:59;12.00;;;8.30;;
62435;SDS011;48480;50.252;18.848;2023-04-30T03:17:43;15.70;;;9.20;;
62435;SDS011;48480;50.252;18.848;2023-04-30T03:20:27;11.10;;;9.10;;
62435;SDS011;48480;50.252;18.848;2023-04-30T03:23:11;13.80;;;9.50;;
62435;SDS011;48480;50.252;18.848;2023-04-30T03:25:55;15.60;;;9.90;;
62435;SDS011;48480;50.252;18.848;2023-04-30T03:28:39;15.80;;;10.80;;
62435;SDS011;48480;50.252;18.848;2023-04-30T03:31:23;13.80;;;10.40;;
62435;SDS011;48480;50.252;18.848;2023-04-30T03:34:08;16.10;;;12.80;;
62435;SDS011;48480;50.252;18.848;2023-04-30T03:36:52;15.40;;;12.40;;
62435;SDS011;48480;50.252;18.848;2023-04-30T03:39:36;15.50;;;11.50;;
62435;SDS011;48480;50.252;18.848;2023-04-30T03:42:20;17.30;;;11.70;;
62435;SDS011;48480;50.252;18.848;2023-04-30T03:45:04;17.10;;;11.90;;
62435;SDS011;48480;50.252;18.848;2023-04-30T03:47:48;15.20;;;11.90;;
62435;SDS011;48480;50.252;18.848;2023-04-30T03:50:35;15.30;;;11.60;;
62435;SDS011;48480;50.252;18.848;2023-04-30T03:53:19;14.70;;;11.70;;
62435;SDS011;48480;50.252;18.848;2023-04-30T03:56:03;14.70;;;11.30;;
62435;SDS011;48480;50.252;18.848;2023-04-30T03:58:47;14.50;;;11.10;;
62435;SDS011;48480;50.252;18.848;2023-04-30T04:01:32;14.60;;;10.60;;
62435;SDS011;48480;50.252;18.848;2023-04-30T04:04:16;14.20;;;10.60;;
62435;SDS011;48480;50.252;18.848;2023-04-30T04:07:00;15.80;;;10.50;;
62435;SDS011;48480;50.252;18.848;2023-04-30T04:09:46;15.10;;;11.50;;
62435;SDS011;48480;50.252;18.848;2023-04-30T04:12:33;14.50;;;11.00;;
62435;SDS011;48480;50.252;18.848;2023-04-30T04:15:17;13.90;;;10.70;;
62435;SDS011;48480;50.252;18.848;2023-04-30T04:18:01;13.60;;;11.30;;
62435;SDS011;48480;50.252;18.848;2023-04-30T04:20:46;15.00;;;11.40;;
62435;SDS011;48480;50.252;18.848;2023-04-30T04:23:30;17.60;;;11.80;;
62435;SDS011;48480;50.252;18.848;2023-04-30T04:26:14;13.40;;;11.10;;
62435;SDS011;48480;50.252;18.848;2023-04-30T04:28:59;15.70;;;12.00;;
62435;SDS011;48480;50.252;18.848;2023-04-30T04:31:45;14.90;;;11.20;;
62435;SDS011;48480;50.252;18.848;2023-04-30T04:34:31;15.30;;;10.90;;
62435;SDS011;48480;50.252;18.848;2023-04-30T04:37:16;14.50;;;11.40;;
62435;SDS011;48480;50.252;18.848;2023-04-30T04:40:00;15.60;;;11.20;;
62435;SDS011;48480;50.252;18.848;2023-04-30T04:42:44;15.30;;;10.80;;
62435;SDS011;48480;50.252;18.848;2023-04-30T04:45:28;12.80;;;10.10;;
62435;SDS011;48480;50.252;18.848;2023-04-30T04:48:12;13.40;;;10.40;;
62435;SDS011;48480;50.252;18.848;2023-04-30T04:50:56;13.40;;;10.30;;
62435;SDS011;48480;50.252;18.848;2023-04-30T04:53:40;13.70;;;10.30;;
62435;SDS011;48480;50.252;18.848;2023-04-30T04:56:24;13.00;;;10.70;;
62435;SDS011;48480;50.252;18.848;2023-04-30T04:59:08;15.50;;;10.40;;
62435;SDS011;48480;50.252;18.848;2023-04-30T05:01:52;13.80;;;9.80;;
62435;SDS011;48480;50.252;18.848;2023-04-30T05:04:36;14.60;;;10.50;;
62435;SDS011;48480;50.252;18.848;2023-04-30T05:07:20;16.30;;;10.10;;
62435;SDS011;48480;50.252;18.848;2023-04-30T05:10:05;14.40;;;10.40;;
62435;SDS011;48480;50.252;18.848;2023-04-30T05:12:50;13.20;;;10.10;;
62435;SDS011;48480;50.252;18.848;2023-04-30T05:15:34;10.40;;;8.60;;
62435;SDS011;48480;50.252;18.848;2023-04-30T05:18:19;11.90;;;8.70;;
62435;SDS011;48480;50.252;18.848;2023-04-30T05:21:03;11.30;;;8.90;;
62435;SDS011;48480;50.252;18.848;2023-04-30T05:23:47;14.20;;;9.70;;
62435;SDS011;48480;50.252;18.848;2023-04-30T05:26:31;10.80;;;8.80;;
62435;SDS011;48480;50.252;18.848;2023-04-30T05:29:15;10.80;;;9.20;;
62435;SDS011;48480;50.252;18.848;2023-04-30T05:32:00;13.40;;;9.60;;
62435;SDS011;48480;50.252;18.848;2023-04-30T05:34:44;11.50;;;9.50;;
62435;SDS011;48480;50.252;18.848;2023-04-30T05:37:28;11.80;;;9.30;;
62435;SDS011;48480;50.252;18.848;2023-04-30T05:40:12;14.30;;;9.30;;
62435;SDS011;48480;50.252;18.848;2023-04-30T05:42:57;13.90;;;9.90;;
62435;SDS011;48480;50.252;18.848;2023-04-30T05:45:42;12.60;;;8.70;;
62435;SDS011;48480;50.252;18.848;2023-04-30T05:48:26;15.10;;;10.90;;
62435;SDS011;48480;50.252;18.848;2023-04-30T05:51:10;14.30;;;9.40;;
62435;SDS011;48480;50.252;18.848;2023-04-30T05:53:54;13.70;;;9.70;;
62435;SDS011;48480;50.252;18.848;2023-04-30T05:56:40;12.70;;;9.50;;
62435;SDS011;48480;50.252;18.848;2023-04-30T05:59:24;14.00;;;9.10;;
62435;SDS011;48480;50.252;18.848;2023-04-30T06:02:08;11.00;;;8.30;;
62435;SDS011;48480;50.252;18.848;2023-04-30T06:04:52;10.30;;;7.70;;
62435;SDS011;48480;50.252;18.848;2023-04-30T06:07:36;10.50;;;8.50;;
62435;SDS011;48480;50.252;18.848;2023-04-30T06:10:20;11.20;;;8.10;;
62435;SDS011;48480;50.252;18.848;2023-04-30T06:13:05;13.90;;;7.90;;
62435;SDS011;48480;50.252;18.848;2023-04-30T06:15:50;11.90;;;8.50;;
62435;SDS011;48480;50.252;18.848;2023-04-30T06:18:34;11.50;;;8.10;;
62435;SDS011;48480;50.252;18.848;2023-04-30T06:21:21;10.10;;;7.60;;
62435;SDS011;48480;50.252;18.848;2023-04-30T06:24:08;9.40;;;7.40;;
62435;SDS011;48480;50.252;18.848;2023-04-30T06:26:53;10.40;;;7.00;;
62435;SDS011;48480;50.252;18.848;2023-04-30T06:29:37;11.50;;;7.00;;
62435;SDS011;48480;50.252;18.848;2023-04-30T06:32:22;10.80;;;7.00;;
62435;SDS011;48480;50.252;18.848;2023-04-30T06:35:06;9.00;;;6.50;;
62435;SDS011;48480;50.252;18.848;2023-04-30T06:37:54;9.30;;;6.50;;
62435;SDS011;48480;50.252;18.848;2023-04-30T06:40:38;11.70;;;7.20;;
62435;SDS011;48480;50.252;18.848;2023-04-30T06:43:23;8.80;;;6.60;;
62435;SDS011;48480;50.252;18.848;2023-04-30T06:46:07;8.40;;;6.60;;
62435;SDS011;48480;50.252;18.848;2023-04-30T06:48:51;9.00;;;6.40;;
62435;SDS011;48480;50.252;18.848;2023-04-30T06:51:36;8.80;;;6.10;;
62435;SDS011;48480;50.252;18.848;2023-04-30T06:54:20;9.70;;;6.20;;
62435;SDS011;48480;50.252;18.848;2023-04-30T06:57:05;8.10;;;5.90;;
62435;SDS011;48480;50.252;18.848;2023-04-30T06:59:50;7.60;;;5.80;;
62435;SDS011;48480;50.252;18.848;2023-04-30T07:02:34;7.20;;;5.60;;
62435;SDS011;48480;50.252;18.848;2023-04-30T07:05:20;9.20;;;5.60;;
62435;SDS011;48480;50.252;18.848;2023-04-30T07:08:05;6.80;;;5.30;;
62435;SDS011;48480;50.252;18.848;2023-04-30T07:10:49;7.70;;;5.70;;
62435;SDS011;48480;50.252;18.848;2023-04-30T07:13:34;7.20;;;5.90;;
62435;SDS011;48480;50.252;18.848;2023-04-30T07:16:23;7.50;;;6.20;;
62435;SDS011;48480;50.252;18.848;2023-04-30T07:19:10;6.40;;;5.00;;
62435;SDS011;48480;50.252;18.848;2023-04-30T07:21:55;6.90;;;5.40;;
62435;SDS011;48480;50.252;18.848;2023-04-30T07:24:43;6.80;;;5.50;;
62435;SDS011;48480;50.252;18.848;2023-04-30T07:27:31;8.30;;;5.30;;
62435;SDS011;48480;50.252;18.848;2023-04-30T07:30:15;6.20;;;4.70;;
62435;SDS011;48480;50.252;18.848;2023-04-30T07:32:59;6.60;;;4.60;;
62435;SDS011;48480;50.252;18.848;2023-04-30T07:35:43;7.30;;;5.40;;
62435;SDS011;48480;50.252;18.848;2023-04-30T07:38:28;6.70;;;5.00;;
62435;SDS011;48480;50.252;18.848;2023-04-30T07:41:12;7.10;;;5.20;;
62435;SDS011;48480;50.252;18.848;2023-04-30T07:43:57;9.10;;;5.40;;
62435;SDS011;48480;50.252;18.848;2023-04-30T07:46:42;9.30;;;5.70;;
62435;SDS011;48480;50.252;18.848;2023-04-30T07:49:26;7.60;;;5.30;;
62435;SDS011;48480;50.252;18.848;2023-04-30T07:52:18;6.90;;;5.10;;
62435;SDS011;48480;50.252;18.848;2023-04-30T07:55:02;10.40;;;4.90;;
62435;SDS011;48480;50.252;18.848;2023-04-30T07:57:46;6.00;;;5.00;;
62435;SDS011;48480;50.252;18.848;2023-04-30T08:00:30;5.40;;;4.50;;
62435;SDS011;48480;50.252;18.848;2023-04-30T08:03:15;6.80;;;4.90;;
62435;SDS011;48480;50.252;18.848;2023-04-30T08:05:59;6.10;;;4.40;;
62435;SDS011;48480;50.252;18.848;2023-04-30T08:08:44;5.80;;;4.30;;
62435;SDS011;48480;50.252;18.848;2023-04-30T08:11:28;6.10;;;4.70;;
62435;SDS011;48480;50.252;18.848;2023-04-30T08:14:12;7.00;;;4.60;;
62435;SDS011;48480;50.252;18.848;2023-04-30T08:16:58;6.60;;;4.10;;
62435;SDS011;48480;50.252;18.848;2023-04-30T08:19:43;6.10;;;4.60;;
62435;SDS011;48480;50.252;18.848;2023-04-30T08:22:28;5.60;;;4.40;;
62435;SDS011;48480;50.252;18.848;2023-04-30T08:25:13;5.80;;;4.40;;
62435;SDS011;48480;50.252;18.848;2023-04-30T08:27:58;5.10;;;4.30;;
62435;SDS011;48480;50.252;18.848;2023-04-30T08:30:43;5.80;;;3.90;;
62435;SDS011;48480;50.252;18.848;2023-04-30T08:33:28;5.60;;;3.70;;
62435;SDS011;48480;50.252;18.848;2023-04-30T08:36:13;6.10;;;3.80;;
62435;SDS011;48480;50.252;18.848;2023-04-30T08:38:58;4.30;;;3.60;;
62435;SDS011;48480;50.252;18.848;2023-04-30T08:41:42;7.10;;;4.20;;
62435;SDS011;48480;50.252;18.848;2023-04-30T08:44:34;6.10;;;3.30;;
62435;SDS011;48480;50.252;18.848;2023-04-30T08:47:27;5.60;;;3.70;;
62435;SDS011;48480;50.252;18.848;2023-04-30T08:50:12;7.80;;;4.00;;
62435;SDS011;48480;50.252;18.848;2023-04-30T08:52:57;6.40;;;3.70;;
62435;SDS011;48480;50.252;18.848;2023-04-30T08:55:42;5.70;;;3.80;;
62435;SDS011;48480;50.252;18.848;2023-04-30T08:58:27;4.90;;;3.90;;
62435;SDS011;48480;50.252;18.848;2023-04-30T09:01:12;7.10;;;3.60;;
62435;SDS011;48480;50.252;18.848;2023-04-30T09:04:04;7.50;;;3.90;;
62435;SDS011;48480;50.252;18.848;2023-04-30T09:06:51;7.60;;;3.80;;
62435;SDS011;48480;50.252;18.848;2023-04-30T09:09:40;5.30;;;3.70;;
62435;SDS011;48480;50.252;18.848;2023-04-30T09:12:24;6.60;;;3.80;;
62435;SDS011;48480;50.252;18.848;2023-04-30T09:15:08;4.90;;;3.10;;
62435;SDS011;48480;50.252;18.848;2023-04-30T09:18:07;6.60;;;3.50;;
62435;SDS011;48480;50.252;18.848;2023-04-30T09:21:00;3.80;;;2.90;;
62435;SDS011;48480;50.252;18.848;2023-04-30T09:23:56;5.20;;;3.30;;
62435;SDS011;48480;50.252;18.848;2023-04-30T09:26:42;5.20;;;2.80;;
62435;SDS011;48480;50.252;18.848;2023-04-30T09:29:35;4.00;;;2.80;;
62435;SDS011;48480;50.252;18.848;2023-04-30T09:32:20;5.10;;;3.40;;
62435;SDS011;48480;50.252;18.848;2023-04-30T09:35:04;5.80;;;3.30;;
62435;SDS011;48480;50.252;18.848;2023-04-30T09:37:49;5.70;;;3.00;;
62435;SDS011;48480;50.252;18.848;2023-04-30T09:40:37;5.20;;;3.20;;
62435;SDS011;48480;50.252;18.848;2023-04-30T09:43:26;6.70;;;3.30;;
62435;SDS011;48480;50.252;18.848;2023-04-30T09:46:11;5.50;;;3.60;;
62435;SDS011;48480;50.252;18.848;2023-04-30T09:48:57;5.90;;;3.50;;
62435;SDS011;48480;50.252;18.848;2023-04-30T09:51:52;6.30;;;3.00;;
62435;SDS011;48480;50.252;18.848;2023-04-30T09:54:44;5.30;;;3.20;;
62435;SDS011;48480;50.252;18.848;2023-04-30T09:57:29;4.30;;;3.20;;
62435;SDS011;48480;50.252;18.848;2023-04-30T10:00:15;4.60;;;3.20;;
62435;SDS011;48480;50.252;18.848;2023-04-30T10:03:05;4.80;;;3.00;;
62435;SDS011;48480;50.252;18.848;2023-04-30T10:05:58;3.80;;;2.20;;
62435;SDS011;48480;50.252;18.848;2023-04-30T10:08:50;6.30;;;3.30;;
62435;SDS011;48480;50.252;18.848;2023-04-30T10:11:37;4.60;;;3.10;;
62435;SDS011;48480;50.252;18.848;2023-04-30T10:14:25;5.40;;;2.80;;
62435;SDS011;48480;50.252;18.848;2023-04-30T10:17:14;4.90;;;3.30;;
62435;SDS011;48480;50.252;18.848;2023-04-30T10:20:02;4.10;;;2.60;;
62435;SDS011;48480;50.252;18.848;2023-04-30T10:22:53;3.90;;;2.80;;
62435;SDS011;48480;50.252;18.848;2023-04-30T10:25:39;5.00;;;3.20;;
62435;SDS011;48480;50.252;18.848;2023-04-30T10:28:24;5.50;;;2.90;;
62435;SDS011;48480;50.252;18.848;2023-04-30T10:31:15;4.00;;;2.70;;
62435;SDS011;48480;50.252;18.848;2023-04-30T10:34:10;3.80;;;2.60;;
62435;SDS011;48480;50.252;18.848;2023-04-30T10:36:58;3.60;;;3.20;;
62435;SDS011;48480;50.252;18.848;2023-04-30T10:39:48;5.70;;;3.10;;
62435;SDS011;48480;50.252;18.848;2023-04-30T10:42:35;4.00;;;2.70;;
62435;SDS011;48480;50.252;18.848;2023-04-30T10:45:36;5.30;;;3.10;;
62435;SDS011;48480;50.252;18.848;2023-04-30T10:48:24;5.10;;;3.20;;
62435;SDS011;48480;50.252;18.848;2023-04-30T10:51:10;5.10;;;2.90;;
62435;SDS011;48480;50.252;18.848;2023-04-30T10:53:54;5.10;;;2.40;;
62435;SDS011;48480;50.252;18.848;2023-04-30T10:56:39;3.40;;;2.50;;
62435;SDS011;48480;50.252;18.848;2023-04-30T10:59:23;4.90;;;2.90;;
62435;SDS011;48480;50.252;18.848;2023-04-30T11:02:14;4.40;;;3.00;;
62435;SDS011;48480;50.252;18.848;2023-04-30T11:05:08;4.20;;;3.20;;
62435;SDS011;48480;50.252;18.848;2023-04-30T11:07:57;4.00;;;3.20;;
62435;SDS011;48480;50.252;18.848;2023-04-30T11:10:55;5.70;;;3.10;;
62435;SDS011;48480;50.252;18.848;2023-04-30T11:13:38;5.60;;;2.90;;
62435;SDS011;48480;50.252;18.848;2023-04-30T11:16:42;4.80;;;2.70;;
62435;SDS011;48480;50.252;18.848;2023-04-30T11:19:46;4.20;;;3.00;;
62435;SDS011;48480;50.252;18.848;2023-04-30T11:22:35;4.10;;;2.90;;
62435;SDS011;48480;50.252;18.848;2023-04-30T11:25:21;4.90;;;2.60;;
62435;SDS011;48480;50.252;18.848;2023-04-30T11:28:10;3.90;;;2.70;;
62435;SDS011;48480;50.252;18.848;2023-04-30T11:30:58;5.90;;;2.80;;
62435;SDS011;48480;50.252;18.848;2023-04-30T11:33:44;4.90;;;2.50;;
62435;SDS011;48480;50.252;18.848;2023-04-30T11:36:38;4.10;;;2.50;;
62435;SDS011;48480;50.252;18.848;2023-04-30T11:39:29;6.40;;;2.50;;
62435;SDS011;48480;50.252;18.848;2023-04-30T11:42:18;5.00;;;3.00;;
62435;SDS011;48480;50.252;18.848;2023-04-30T11:47:53;5.10;;;2.80;;
62435;SDS011;48480;50.252;18.848;2023-04-30T11:53:29;3.90;;;2.90;;
62435;SDS011;48480;50.252;18.848;2023-04-30T11:56:20;4.70;;;2.50;;
62435;SDS011;48480;50.252;18.848;2023-04-30T11:59:10;6.20;;;2.70;;
62435;SDS011;48480;50.252;18.848;2023-04-30T12:01:54;5.30;;;2.70;;
62435;SDS011;48480;50.252;18.848;2023-04-30T12:04:43;4.50;;;2.50;;
62435;SDS011;48480;50.252;18.848;2023-04-30T12:10:06;6.70;;;2.20;;
62435;SDS011;48480;50.252;18.848;2023-04-30T12:12:51;5.90;;;2.30;;
62435;SDS011;48480;50.252;18.848;2023-04-30T12:15:37;5.10;;;2.70;;
62435;SDS011;48480;50.252;18.848;2023-04-30T12:18:22;5.00;;;2.50;;
62435;SDS011;48480;50.252;18.848;2023-04-30T12:21:08;5.00;;;2.50;;
62435;SDS011;48480;50.252;18.848;2023-04-30T12:23:53;5.70;;;2.50;;
62435;SDS011;48480;50.252;18.848;2023-04-30T12:26:37;7.20;;;2.60;;
62435;SDS011;48480;50.252;18.848;2023-04-30T12:29:24;5.70;;;2.40;;
62435;SDS011;48480;50.252;18.848;2023-04-30T12:32:09;3.90;;;2.30;;
62435;SDS011;48480;50.252;18.848;2023-04-30T12:34:56;5.80;;;2.60;;
62435;SDS011;48480;50.252;18.848;2023-04-30T12:37:43;5.90;;;2.60;;
62435;SDS011;48480;50.252;18.848;2023-04-30T12:40:29;4.60;;;2.60;;
62435;SDS011;48480;50.252;18.848;2023-04-30T12:43:14;3.60;;;2.30;;
62435;SDS011;48480;50.252;18.848;2023-04-30T12:46:00;8.70;;;2.80;;
62435;SDS011;48480;50.252;18.848;2023-04-30T12:48:46;5.60;;;2.50;;
62435;SDS011;48480;50.252;18.848;2023-04-30T12:51:41;4.50;;;2.60;;
62435;SDS011;48480;50.252;18.848;2023-04-30T12:54:26;5.00;;;2.70;;
62435;SDS011;48480;50.252;18.848;2023-04-30T12:57:13;5.40;;;2.50;;
62435;SDS011;48480;50.252;18.848;2023-04-30T12:59:57;4.90;;;2.30;;
62435;SDS011;48480;50.252;18.848;2023-04-30T13:02:44;4.00;;;2.70;;
62435;SDS011;48480;50.252;18.848;2023-04-30T13:05:35;4.40;;;2.60;;
62435;SDS011;48480;50.252;18.848;2023-04-30T13:08:20;5.60;;;2.60;;
62435;SDS011;48480;50.252;18.848;2023-04-30T13:11:04;5.60;;;2.40;;
62435;SDS011;48480;50.252;18.848;2023-04-30T13:13:49;4.30;;;2.50;;
62435;SDS011;48480;50.252;18.848;2023-04-30T13:16:33;3.50;;;2.10;;
62435;SDS011;48480;50.252;18.848;2023-04-30T13:19:17;3.40;;;2.40;;
62435;SDS011;48480;50.252;18.848;2023-04-30T13:22:02;3.80;;;2.30;;
62435;SDS011;48480;50.252;18.848;2023-04-30T13:24:46;5.30;;;2.40;;
62435;SDS011;48480;50.252;18.848;2023-04-30T13:27:37;6.70;;;2.70;;
62435;SDS011;48480;50.252;18.848;2023-04-30T13:30:23;3.50;;;2.50;;
62435;SDS011;48480;50.252;18.848;2023-04-30T13:33:08;5.00;;;2.30;;
62435;SDS011;48480;50.252;18.848;2023-04-30T13:35:53;6.90;;;2.40;;
62435;SDS011;48480;50.252;18.848;2023-04-30T13:38:37;6.10;;;2.30;;
62435;SDS011;48480;50.252;18.848;2023-04-30T13:41:22;3.50;;;2.10;;
62435;SDS011;48480;50.252;18.848;2023-04-30T13:44:06;4.90;;;2.60;;
62435;SDS011;48480;50.252;18.848;2023-04-30T13:46:50;5.00;;;2.40;;
62435;SDS011;48480;50.252;18.848;2023-04-30T13:49:34;3.60;;;2.80;;
62435;SDS011;48480;50.252;18.848;2023-04-30T13:52:25;5.60;;;3.10;;
62435;SDS011;48480;50.252;18.848;2023-04-30T13:55:08;3.90;;;2.20;;
62435;SDS011;48480;50.252;18.848;2023-04-30T13:57:53;3.30;;;2.40;;
62435;SDS011;48480;50.252;18.848;2023-04-30T14:00:39;4.50;;;2.40;;
62435;SDS011;48480;50.252;18.848;2023-04-30T14:03:23;4.80;;;2.40;;
62435;SDS011;48480;50.252;18.848;2023-04-30T14:06:08;3.10;;;2.10;;
62435;SDS011;48480;50.252;18.848;2023-04-30T14:08:52;4.00;;;2.30;;
62435;SDS011;48480;50.252;18.848;2023-04-30T14:11:37;4.50;;;2.40;;
62435;SDS011;48480;50.252;18.848;2023-04-30T14:14:22;3.90;;;2.50;;
62435;SDS011;48480;50.252;18.848;2023-04-30T14:17:07;3.80;;;2.50;;
62435;SDS011;48480;50.252;18.848;2023-04-30T14:19:54;3.80;;;2.30;;
62435;SDS011;48480;50.252;18.848;2023-04-30T14:22:38;3.40;;;2.60;;
62435;SDS011;48480;50.252;18.848;2023-04-30T14:25:13;4.10;;;2.40;;
62435;SDS011;48480;50.252;18.848;2023-04-30T14:27:57;5.70;;;2.30;;
62435;SDS011;48480;50.252;18.848;2023-04-30T14:30:41;3.90;;;2.50;;
62435;SDS011;48480;50.252;18.848;2023-04-30T14:33:25;4.00;;;2.40;;
62435;SDS011;48480;50.252;18.848;2023-04-30T14:36:09;4.70;;;2.30;;
62435;SDS011;48480;50.252;18.848;2023-04-30T14:38:54;3.90;;;2.20;;
62435;SDS011;48480;50.252;18.848;2023-04-30T14:41:39;7.30;;;2.20;;
62435;SDS011;48480;50.252;18.848;2023-04-30T14:44:23;4.30;;;2.20;;
62435;SDS011;48480;50.252;18.848;2023-04-30T14:47:10;4.70;;;2.20;;
62435;SDS011;48480;50.252;18.848;2023-04-30T14:49:54;3.60;;;2.00;;
62435;SDS011;48480;50.252;18.848;2023-04-30T14:52:38;3.30;;;2.20;;
62435;SDS011;48480;50.252;18.848;2023-04-30T14:55:23;3.80;;;2.10;;
62435;SDS011;48480;50.252;18.848;2023-04-30T14:58:11;4.90;;;2.40;;
62435;SDS011;48480;50.252;18.848;2023-04-30T15:00:56;4.10;;;1.80;;
62435;SDS011;48480;50.252;18.848;2023-04-30T15:03:41;3.90;;;2.00;;
62435;SDS011;48480;50.252;18.848;2023-04-30T15:06:25;5.20;;;1.80;;
62435;SDS011;48480;50.252;18.848;2023-04-30T15:09:10;2.90;;;1.70;;
62435;SDS011;48480;50.252;18.848;2023-04-30T15:11:55;3.60;;;1.70;;
62435;SDS011;48480;50.252;18.848;2023-04-30T15:14:40;5.90;;;2.30;;
62435;SDS011;48480;50.252;18.848;2023-04-30T15:17:24;5.40;;;2.00;;
62435;SDS011;48480;50.252;18.848;2023-04-30T15:20:09;3.20;;;1.80;;
62435;SDS011;48480;50.252;18.848;2023-04-30T15:22:53;3.30;;;1.70;;
62435;SDS011;48480;50.252;18.848;2023-04-30T15:25:39;6.10;;;3.20;;
62435;SDS011;48480;50.252;18.848;2023-04-30T15:28:30;2.20;;;1.50;;
62435;SDS011;48480;50.252;18.848;2023-04-30T15:31:15;5.80;;;2.00;;
62435;SDS011;48480;50.252;18.848;2023-04-30T15:33:48;3.80;;;2.10;;
62435;SDS011;48480;50.252;18.848;2023-04-30T15:36:33;4.30;;;2.00;;
62435;SDS011;48480;50.252;18.848;2023-04-30T15:39:17;7.40;;;4.10;;
62435;SDS011;48480;50.252;18.848;2023-04-30T15:42:09;4.90;;;3.00;;
62435;SDS011;48480;50.252;18.848;2023-04-30T15:44:54;2.50;;;2.00;;
62435;SDS011;48480;50.252;18.848;2023-04-30T15:47:45;3.60;;;1.90;;
62435;SDS011;48480;50.252;18.848;2023-04-30T15:53:24;5.80;;;3.30;;
62435;SDS011;48480;50.252;18.848;2023-04-30T15:59:02;5.60;;;3.40;;
62435;SDS011;48480;50.252;18.848;2023-04-30T16:01:47;10.00;;;6.70;;
62435;SDS011;48480;50.252;18.848;2023-04-30T16:04:39;4.40;;;2.20;;
62435;SDS011;48480;50.252;18.848;2023-04-30T16:10:18;4.40;;;1.90;;
62435;SDS011;48480;50.252;18.848;2023-04-30T16:13:04;4.40;;;1.80;;
62435;SDS011;48480;50.252;18.848;2023-04-30T16:16:11;3.30;;;1.90;;
62435;SDS011;48480;50.252;18.848;2023-04-30T16:18:56;8.40;;;4.70;;
62435;SDS011;48480;50.252;18.848;2023-04-30T16:21:40;12.60;;;7.50;;
62435;SDS011;48480;50.252;18.848;2023-04-30T16:24:27;9.50;;;4.90;;
62435;SDS011;48480;50.252;18.848;2023-04-30T16:27:11;4.90;;;2.60;;
62435;SDS011;48480;50.252;18.848;2023-04-30T16:29:59;5.90;;;2.70;;
62435;SDS011;48480;50.252;18.848;2023-04-30T16:32:52;4.10;;;2.40;;
62435;SDS011;48480;50.252;18.848;2023-04-30T16:38:30;4.00;;;2.10;;
62435;SDS011;48480;50.252;18.848;2023-04-30T16:41:15;8.00;;;4.30;;
62435;SDS011;48480;50.252;18.848;2023-04-30T16:44:05;6.40;;;2.20;;
62435;SDS011;48480;50.252;18.848;2023-04-30T16:49:24;5.80;;;2.10;;
62435;SDS011;48480;50.252;18.848;2023-04-30T16:52:09;5.00;;;2.20;;
62435;SDS011;48480;50.252;18.848;2023-04-30T16:54:53;7.30;;;2.10;;
62435;SDS011;48480;50.252;18.848;2023-04-30T16:57:38;3.50;;;2.10;;